Lamy, New Mexico
Current Conditions -  °F | °C
As of 10:53 AM on Saturday 20 Dec 2014 (Local Time) from KSAF Reporting Station
Clear Clear  
Wind Chill: -4°   Ceiling: Unl
Heat Index:   Visibility: 10mi
Dew Point: -8°   Wind: 13mph
Humidity: 50%   Direction: 340°NNW
Pressure: 30.12"   Gusts: NA
Location:  35.48°N, 105.88°W
Report Text: KSAF 201753Z 34011KT 10SM CLR 01/M08 A3012 RMK AO2 SLP203 T00111083 10011 21056 50000
Loading
Personal Weather Stations






























Interactive Weather Map New forecast layout! Learn more

10-Day Weather Forecast

Advertisements
Track Severe Weather on mobile